Time,TemperatureF,DewpointF,PressureIn,WindDirection,WindDirectionDegrees,WindSpeedMPH,WindSpeedGustMPH,Humidity,HourlyPrecipIn,Conditions,Clouds,dailyrainin,SoftwareType,DateUTC
2013-01-14 00:04:00,59.0,58.0,30.05,NW,318,4.0,8.0,95,0.12,,,1.27,,2013-01-14 05:04:00,
2013-01-14 00:12:00,59.0,58.0,30.05,NW,318,4.0,8.0,95,0.12,,,1.27,,2013-01-14 05:12:00,
2013-01-14 00:22:00,56.0,55.0,30.06,WNW,302,4.0,8.0,95,0.10,,,1.28,,2013-01-14 05:22:00,
2013-01-14 00:33:00,54.0,53.0,30.06,WNW,300,1.0,5.0,95,0.07,,,1.28,,2013-01-14 05:33:00,
2013-01-14 00:42:00,54.0,53.0,30.06,WNW,300,1.0,5.0,95,0.07,,,1.28,,2013-01-14 05:42:00,
2013-01-14 00:53:00,52.0,50.0,30.07,NNW,330,1.0,5.0,94,0.04,,,1.28,,2013-01-14 05:53:00,
2013-01-14 01:03:00,51.0,49.0,30.07,NW,306,2.0,5.0,94,0.01,,,1.28,,2013-01-14 06:03:00,
2013-01-14 01:12:00,51.0,49.0,30.07,NW,306,2.0,5.0,94,0.01,,,1.28,,2013-01-14 06:12:00,
2013-01-14 01:22:00,49.0,47.0,30.08,NW,309,3.0,9.0,94,0.01,,,1.29,,2013-01-14 06:22:00,
2013-01-14 01:33:00,48.0,46.0,30.08,WNW,299,4.0,7.0,94,0.01,,,1.29,,2013-01-14 06:33:00,
2013-01-14 01:43:00,48.0,46.0,30.08,WNW,299,4.0,7.0,94,0.01,,,1.29,,2013-01-14 06:43:00,
2013-01-14 01:53:00,47.0,45.0,30.08,NW,317,1.0,7.0,94,0.01,,,1.29,,2013-01-14 06:53:00,
2013-01-14 02:02:00,47.0,45.0,30.09,NW,311,1.0,6.0,94,0.01,,,1.29,,2013-01-14 07:02:00,
2013-01-14 02:12:00,47.0,45.0,30.09,NW,311,1.0,6.0,94,0.01,,,1.29,,2013-01-14 07:12:00,
2013-01-14 02:23:00,46.0,44.0,30.11,NW,316,2.0,4.0,94,0.01,,,1.30,,2013-01-14 07:23:00,
2013-01-14 02:33:00,46.0,44.0,30.09,NW,317,1.0,4.0,94,0.02,,,1.31,,2013-01-14 07:33:00,
2013-01-14 02:42:00,46.0,44.0,30.09,NW,317,1.0,4.0,94,0.02,,,1.31,,2013-01-14 07:42:00,
2013-01-14 02:53:00,45.0,44.0,30.09,NW,307,0.0,6.0,95,0.03,,,1.32,,2013-01-14 07:53:00,
2013-01-14 03:02:00,45.0,44.0,30.09,NW,307,1.0,3.0,95,0.05,,,1.34,,2013-01-14 08:02:00,
2013-01-14 03:12:00,45.0,44.0,30.09,NW,307,1.0,3.0,95,0.05,,,1.34,,2013-01-14 08:12:00,
2013-01-14 03:22:00,45.0,44.0,30.10,NW,307,1.0,3.0,95,0.05,,,1.35,,2013-01-14 08:22:00,
2013-01-14 03:33:00,45.0,44.0,30.11,NW,307,1.0,3.0,96,0.06,,,1.37,,2013-01-14 08:33:00,
2013-01-14 03:42:00,45.0,44.0,30.11,NW,307,1.0,3.0,96,0.06,,,1.37,,2013-01-14 08:42:00,
2013-01-14 03:53:00,46.0,45.0,30.10,NW,307,0.0,3.0,96,0.07,,,1.39,,2013-01-14 08:53:00,
2013-01-14 04:02:00,46.0,45.0,30.10,NW,307,0.0,1.0,96,0.06,,,1.39,,2013-01-14 09:02:00,
2013-01-14 04:12:00,46.0,45.0,30.10,NW,307,0.0,1.0,96,0.06,,,1.39,,2013-01-14 09:12:00,
2013-01-14 04:23:00,46.0,45.0,30.10,NW,307,0.0,1.0,96,0.06,,,1.39,,2013-01-14 09:23:00,
2013-01-14 04:33:00,45.0,44.0,30.11,WNW,303,0.0,2.0,96,0.09,,,1.46,,2013-01-14 09:33:00,
2013-01-14 04:43:00,45.0,44.0,30.11,WNW,303,0.0,2.0,96,0.09,,,1.46,,2013-01-14 09:43:00,
2013-01-14 04:53:00,45.0,44.0,30.11,WNW,303,0.0,2.0,96,0.09,,,1.46,,2013-01-14 09:53:00,
2013-01-14 05:02:00,45.0,44.0,30.11,WNW,303,0.0,2.0,96,0.09,,,1.46,,2013-01-14 10:02:00,
2013-01-14 05:12:00,45.0,44.0,30.11,WNW,303,0.0,2.0,96,0.09,,,1.46,,2013-01-14 10:12:00,
2013-01-14 05:23:00,45.0,44.0,30.11,WNW,303,0.0,1.0,96,0.03,,,1.47,,2013-01-14 10:23:00,
2013-01-14 05:33:00,45.0,44.0,30.11,WNW,303,0.0,1.0,96,0.03,,,1.47,,2013-01-14 10:33:00,
2013-01-14 05:43:00,45.0,44.0,30.11,WNW,303,0.0,1.0,96,0.03,,,1.47,,2013-01-14 10:43:00,
2013-01-14 05:52:00,45.0,44.0,30.11,WNW,303,0.0,1.0,96,0.03,,,1.47,,2013-01-14 10:52:00,
2013-01-14 08:34:00,44.0,43.0,30.17,NW,313,0.0,3.0,97,0.05,,,1.55,,2013-01-14 13:34:00,
2013-01-14 08:43:00,44.0,43.0,30.17,NW,313,0.0,3.0,97,0.05,,,1.55,,2013-01-14 13:43:00,
2013-01-14 08:53:00,44.0,43.0,30.16,NW,319,1.0,4.0,97,-99.99,,,-99.99,,2013-01-14 13:53:00,
2013-01-14 09:03:00,44.0,43.0,30.16,NW,319,1.0,4.0,97,-99.99,,,-99.99,,2013-01-14 14:03:00,
2013-01-14 09:13:00,44.0,43.0,30.16,NW,319,1.0,4.0,97,-99.99,,,-99.99,,2013-01-14 14:13:00,
2013-01-14 09:23:00,43.0,42.0,30.17,NW,315,0.0,4.0,97,-99.99,,,-99.99,,2013-01-14 14:23:00,
2013-01-14 09:33:00,43.0,42.0,30.17,NW,315,0.0,4.0,97,-99.99,,,-99.99,,2013-01-14 14:33:00,
2013-01-14 09:43:00,43.0,42.0,30.17,NW,315,0.0,4.0,97,-99.99,,,-99.99,,2013-01-14 14:43:00,
2013-01-14 09:53:00,43.0,42.0,30.19,NW,305,0.0,5.0,97,0.06,,,1.63,,2013-01-14 14:53:00,
2013-01-14 10:03:00,43.0,42.0,30.19,NW,305,0.0,5.0,97,0.06,,,1.63,,2013-01-14 15:03:00,
2013-01-14 10:12:00,43.0,42.0,30.19,NW,305,0.0,5.0,97,0.06,,,1.63,,2013-01-14 15:12:00,
2013-01-14 10:23:00,43.0,42.0,30.18,North,355,0.0,5.0,97,-99.99,,,-99.99,,2013-01-14 15:23:00,
2013-01-14 10:34:00,43.0,42.0,30.21,North,355,0.0,2.0,97,0.07,,,1.69,,2013-01-14 15:34:00,
2013-01-14 10:43:00,43.0,42.0,30.21,North,355,0.0,2.0,97,0.07,,,1.69,,2013-01-14 15:43:00,
2013-01-14 10:53:00,43.0,42.0,30.21,North,355,0.0,2.0,97,0.07,,,1.69,,2013-01-14 15:53:00,
2013-01-14 11:03:00,43.0,42.0,30.21,North,355,0.0,2.0,97,0.07,,,1.69,,2013-01-14 16:03:00,
2013-01-14 11:12:00,43.0,42.0,30.21,North,355,0.0,2.0,97,0.07,,,1.69,,2013-01-14 16:12:00,
2013-01-14 11:33:00,44.0,43.0,30.18,NNW,345,0.0,1.0,97,0.02,,,1.71,,2013-01-14 16:33:00,
2013-01-14 11:43:00,44.0,43.0,30.18,NNW,345,0.0,1.0,97,0.02,,,1.71,,2013-01-14 16:43:00,
2013-01-14 11:53:00,44.0,43.0,30.18,NNW,345,0.0,1.0,97,0.02,,,1.71,,2013-01-14 16:53:00,
2013-01-14 12:03:00,43.0,42.0,30.17,NW,309,0.0,2.0,97,0.01,,,1.72,,2013-01-14 17:03:00,
2013-01-14 12:12:00,43.0,42.0,30.17,NW,309,0.0,2.0,97,0.01,,,1.72,,2013-01-14 17:12:00,
2013-01-14 12:23:00,43.0,42.0,30.14,NW,310,0.0,301.0,97,-99.99,,,-99.99,,2013-01-14 17:23:00,
2013-01-14 12:33:00,43.0,42.0,30.14,NW,310,0.0,301.0,97,-99.99,,,-99.99,,2013-01-14 17:33:00,
2013-01-14 12:43:00,43.0,42.0,30.14,NW,310,0.0,301.0,97,-99.99,,,-99.99,,2013-01-14 17:43:00,
2013-01-14 12:54:00,43.0,42.0,30.14,NW,310,0.0,301.0,97,-99.99,,,-99.99,,2013-01-14 17:54:00,
2013-01-14 13:03:00,43.0,42.0,30.12,NW,311,1.0,2.0,97,0.08,,,1.81,,2013-01-14 18:03:00,
2013-01-14 13:13:00,43.0,42.0,30.12,NW,311,1.0,2.0,97,0.08,,,1.81,,2013-01-14 18:13:00,
2013-01-14 13:23:00,43.0,42.0,30.12,NW,311,1.0,2.0,97,0.08,,,1.81,,2013-01-14 18:23:00,
2013-01-14 13:33:00,43.0,42.0,30.12,NW,311,1.0,2.0,97,0.08,,,1.81,,2013-01-14 18:33:00,
2013-01-14 13:43:00,43.0,42.0,30.12,NW,311,1.0,2.0,97,0.08,,,1.81,,2013-01-14 18:43:00,
2013-01-14 14:53:00,43.0,42.0,30.08,NW,311,0.0,1.0,97,0.13,,,2.00,,2013-01-14 19:53:00,
2013-01-14 15:04:00,44.0,43.0,30.09,NW,311,0.0,0.0,97,0.12,,,2.02,,2013-01-14 20:04:00,
2013-01-14 15:12:00,44.0,43.0,30.10,NW,311,0.0,1.0,97,0.13,,,2.08,,2013-01-14 20:12:00,
2013-01-14 15:13:00,44.0,43.0,30.09,NW,311,0.0,0.0,97,0.12,,,2.02,,2013-01-14 20:13:00,
2013-01-14 15:23:00,44.0,43.0,30.09,NW,311,0.0,0.0,97,0.12,,,2.02,,2013-01-14 20:23:00,
2013-01-14 15:33:00,44.0,43.0,30.10,NW,311,0.0,1.0,97,0.13,,,2.08,,2013-01-14 20:33:00,
2013-01-14 15:43:00,44.0,43.0,30.10,NW,311,0.0,1.0,97,0.13,,,2.08,,2013-01-14 20:43:00,
2013-01-14 15:53:00,44.0,43.0,30.10,NW,311,0.0,1.0,97,0.13,,,2.08,,2013-01-14 20:53:00,
2013-01-14 16:03:00,44.0,43.0,30.10,NW,311,0.0,1.0,97,0.13,,,2.08,,2013-01-14 21:03:00,
2013-01-14 16:22:00,43.0,42.0,30.17,NNW,340,0.0,4.0,97,0.12,,,2.22,,2013-01-14 21:22:00,
2013-01-14 16:23:00,44.0,43.0,30.13,NW,318,2.0,2.0,97,-99.99,,,-99.99,,2013-01-14 21:23:00,
2013-01-14 16:33:00,43.0,42.0,30.16,WNW,302,3.0,7.0,97,0.11,,,2.19,,2013-01-14 21:33:00,
2013-01-14 16:43:00,43.0,42.0,30.16,WNW,302,3.0,7.0,97,0.11,,,2.19,,2013-01-14 21:43:00,
2013-01-14 16:53:00,43.0,42.0,30.17,NNW,340,0.0,4.0,97,0.12,,,2.22,,2013-01-14 21:53:00,
2013-01-14 17:03:00,43.0,42.0,30.17,NNW,340,0.0,4.0,97,0.12,,,2.22,,2013-01-14 22:03:00,
2013-01-14 17:12:00,43.0,42.0,30.17,NNW,340,0.0,4.0,97,0.12,,,2.22,,2013-01-14 22:12:00,
2013-01-14 18:03:00,43.0,42.0,30.19,NW,321,1.0,7.0,97,0.15,,,2.44,,2013-01-14 23:03:00,
2013-01-14 18:12:00,43.0,42.0,30.19,NW,321,1.0,7.0,97,0.15,,,2.44,,2013-01-14 23:12:00,
2013-01-14 18:23:00,43.0,42.0,30.20,NW,315,1.0,7.0,97,-99.99,,,-99.99,,2013-01-14 23:23:00,
2013-01-14 18:33:00,42.0,41.0,30.24,NNW,329,2.0,4.0,97,0.12,,,2.49,,2013-01-14 23:33:00,
2013-01-14 18:43:00,42.0,41.0,30.24,NNW,329,2.0,4.0,97,0.12,,,2.49,,2013-01-14 23:43:00,
2013-01-14 18:53:00,42.0,41.0,30.24,NNW,329,2.0,4.0,97,0.12,,,2.49,,2013-01-14 23:53:00,
2013-01-14 19:03:00,41.0,40.0,30.24,NW,321,2.0,3.0,97,0.09,,,2.53,,2013-01-15 00:03:00,
2013-01-14 19:12:00,41.0,40.0,30.24,NW,321,2.0,3.0,97,0.09,,,2.53,,2013-01-15 00:12:00,
2013-01-14 19:23:00,41.0,40.0,30.24,NW,321,2.0,3.0,97,0.09,,,2.53,,2013-01-15 00:23:00,
2013-01-14 19:33:00,41.0,40.0,30.24,NW,321,2.0,3.0,97,0.09,,,2.53,,2013-01-15 00:33:00,
2013-01-14 19:43:00,41.0,40.0,30.24,NW,321,2.0,3.0,97,0.09,,,2.53,,2013-01-15 00:43:00,
2013-01-14 19:53:00,40.0,39.0,30.25,NNW,327,0.0,2.0,97,0.06,,,2.56,,2013-01-15 00:53:00,
2013-01-14 20:02:00,40.0,39.0,30.25,NNW,327,0.0,2.0,97,0.06,,,2.56,,2013-01-15 01:02:00,
2013-01-14 20:12:00,40.0,39.0,30.23,NNW,327,0.0,2.0,97,0.11,,,2.64,,2013-01-15 01:12:00,
2013-01-14 20:22:00,40.0,39.0,30.23,NNW,327,0.0,2.0,97,0.11,,,2.64,,2013-01-15 01:22:00,
2013-01-14 20:32:00,40.0,39.0,30.23,NNW,327,0.0,2.0,97,0.11,,,2.64,,2013-01-15 01:32:00,
2013-01-14 20:43:00,40.0,39.0,30.23,NNW,327,0.0,2.0,97,0.11,,,2.64,,2013-01-15 01:43:00,
2013-01-14 20:52:00,39.0,38.0,30.24,NNW,336,1.0,3.0,97,0.10,,,2.52,,2013-01-15 01:52:00,
2013-01-14 21:03:00,39.0,38.0,30.23,NW,313,1.0,3.0,97,-99.99,,,-99.99,,2013-01-15 02:03:00,
2013-01-14 21:12:00,39.0,38.0,30.23,NW,313,1.0,3.0,97,-99.99,,,-99.99,,2013-01-15 02:12:00,
2013-01-14 21:23:00,39.0,38.0,30.23,NW,313,1.0,3.0,97,-99.99,,,-99.99,,2013-01-15 02:23:00,
2013-01-14 21:33:00,39.0,38.0,30.23,NW,313,1.0,3.0,97,-99.99,,,-99.99,,2013-01-15 02:33:00,
2013-01-14 22:33:00,38.0,37.0,30.18,NE,54,0.0,3.0,97,-99.99,,,-99.99,,2013-01-15 03:33:00,
2013-01-14 22:43:00,38.0,37.0,30.18,NE,54,0.0,3.0,97,-99.99,,,-99.99,,2013-01-15 03:43:00,
2013-01-14 22:53:00,38.0,37.0,30.17,NE,53,0.0,1.0,97,0.06,,,1.76,,2013-01-15 03:53:00,
2013-01-14 23:03:00,38.0,37.0,30.15,NE,53,0.0,2.0,97,0.03,,,1.76,,2013-01-15 04:03:00,
2013-01-14 23:12:00,38.0,37.0,30.15,NE,53,0.0,2.0,97,0.03,,,1.76,,2013-01-15 04:12:00,
2013-01-14 23:22:00,39.0,38.0,30.17,NE,53,0.0,1.0,97,0.03,,,1.65,,2013-01-15 04:22:00,
2013-01-14 23:32:00,39.0,38.0,30.16,NNE,28,0.0,1.0,97,0.03,,,1.67,,2013-01-15 04:32:00,
2013-01-14 23:42:00,39.0,38.0,30.16,NNE,28,0.0,1.0,97,0.03,,,1.67,,2013-01-15 04:42:00,
2013-01-14 23:52:00,39.0,38.0,30.14,NE,42,0.0,1.0,97,0.04,,,1.68,,2013-01-15 04:52:00,